createdAt,value
2019-02-06T00:03:35.628Z,34.15
2019-02-06T00:08:00.269Z,38.45
2019-02-06T00:12:24.477Z,38.45
2019-02-06T00:16:48.623Z,38.08
2019-02-06T00:21:13.011Z,34.15
2019-02-06T00:25:37.287Z,34.53
2019-02-06T00:30:01.833Z,41.70
2019-02-06T00:34:26.260Z,37.03
2019-02-06T00:38:50.680Z,34.45
2019-02-06T00:43:15.020Z,35.92
2019-02-06T00:47:40.976Z,36.68
2019-02-06T00:52:05.570Z,36.77
2019-02-06T00:56:30.125Z,37.78
2019-02-06T01:00:54.617Z,37.95
2019-02-06T01:05:18.996Z,34.90
2019-02-06T01:09:43.170Z,35.40
2019-02-06T01:14:08.080Z,38.92
2019-02-06T01:18:32.159Z,41.35
2019-02-06T01:22:57.476Z,37.08
2019-02-06T01:27:21.686Z,39.85
2019-02-06T01:31:46.012Z,36.03
2019-02-06T01:36:10.403Z,44.38
2019-02-06T01:40:34.581Z,37.28
2019-02-06T01:44:58.876Z,38.58
2019-02-06T01:49:23.175Z,42.35
2019-02-06T01:53:47.501Z,46.73
2019-02-06T01:58:12.142Z,40.52
2019-02-06T02:02:36.891Z,43.63
2019-02-06T02:07:01.723Z,43.05
2019-02-06T02:11:26.087Z,43.55
2019-02-06T02:15:50.331Z,42.17
2019-02-06T02:20:24.919Z,39.63
2019-02-06T02:24:49.123Z,42.08
2019-02-06T02:29:13.790Z,38.40
2019-02-06T02:33:38.324Z,43.70
2019-02-06T02:38:02.725Z,43.23
2019-02-06T02:42:27.256Z,40.92
2019-02-06T02:46:51.706Z,41.95
2019-02-06T02:51:15.949Z,43.33
2019-02-06T02:55:40.579Z,45.85
2019-02-06T03:00:12.748Z,44.42
2019-02-06T03:04:38.585Z,45.60
2019-02-06T03:09:03.184Z,39.13
2019-02-06T03:13:29.328Z,42.53
2019-02-06T03:17:53.680Z,44.90
2019-02-06T03:22:18.036Z,39.55
2019-02-06T03:26:42.367Z,43.40
2019-02-06T03:31:07.082Z,42.90
2019-02-06T03:35:31.630Z,44.05
2019-02-06T03:39:56.146Z,35.63
2019-02-06T03:44:20.439Z,43.50
2019-02-06T03:48:44.709Z,40.08
2019-02-06T03:53:09.601Z,45.70
2019-02-06T03:57:35.420Z,43.78
2019-02-06T04:01:59.850Z,36.83
2019-02-06T04:06:24.322Z,39.70
2019-02-06T04:10:48.882Z,39.95
2019-02-06T04:15:13.527Z,37.33
2019-02-06T04:19:37.738Z,36.35
2019-02-06T04:24:02.492Z,41.23
2019-02-06T04:28:27.038Z,40.63
2019-02-06T04:32:51.826Z,33.18
2019-02-06T04:37:16.255Z,37.15
2019-02-06T04:41:40.684Z,34.45
2019-02-06T04:46:05.536Z,38.28
2019-02-06T04:50:30.263Z,35.88
2019-02-06T04:54:54.499Z,41.45
2019-02-06T04:59:18.844Z,35.00
2019-02-06T05:03:43.178Z,32.10
2019-02-06T05:08:07.571Z,36.60
2019-02-06T05:12:31.989Z,33.35
2019-02-06T05:16:56.263Z,36.08
2019-02-06T05:21:20.668Z,36.38
2019-02-06T05:25:45.273Z,34.80
2019-02-06T05:30:10.874Z,35.20
2019-02-06T05:34:35.707Z,31.12
2019-02-06T05:39:00.365Z,34.92
2019-02-06T05:43:24.834Z,36.33
2019-02-06T05:47:49.060Z,34.58
2019-02-06T05:52:13.517Z,38.40
2019-02-06T05:56:37.750Z,32.83
2019-02-06T06:01:03.602Z,37.88
2019-02-06T06:05:28.352Z,37.55
2019-02-06T06:09:52.761Z,38.53
2019-02-06T06:14:17.358Z,33.53
2019-02-06T06:18:41.721Z,39.30
2019-02-06T06:23:06.120Z,35.60
2019-02-06T06:27:30.305Z,46.80
2019-02-06T06:31:54.697Z,34.88
2019-02-06T06:36:18.977Z,33.80
2019-02-06T06:40:43.684Z,31.82
2019-02-06T06:45:11.330Z,32.53
2019-02-06T06:49:35.957Z,41.33
2019-02-06T06:54:00.785Z,32.00
2019-02-06T06:58:25.308Z,45.15
2019-02-06T07:02:49.637Z,36.60
2019-02-06T07:07:13.775Z,39.60
2019-02-06T07:11:37.943Z,42.17
2019-02-06T07:16:02.663Z,43.08
2019-02-06T07:20:26.995Z,41.68
2019-02-06T07:24:51.635Z,43.50
2019-02-06T07:29:15.933Z,44.42
2019-02-06T07:33:40.448Z,48.13
2019-02-06T07:38:05.027Z,49.38
2019-02-06T07:42:29.333Z,43.10
2019-02-06T07:46:54.041Z,51.18
2019-02-06T07:51:18.637Z,50.50
2019-02-06T07:55:43.128Z,50.00
2019-02-06T08:00:08.643Z,52.65
2019-02-06T08:04:32.921Z,58.65
2019-02-06T08:08:57.217Z,54.23
2019-02-06T08:13:21.788Z,54.98
2019-02-06T08:17:46.340Z,55.30
2019-02-06T08:22:11.524Z,51.65
2019-02-06T08:26:35.824Z,56.53
2019-02-06T08:31:00.419Z,56.40
2019-02-06T08:35:24.823Z,54.80
2019-02-06T08:39:49.388Z,55.38
2019-02-06T08:44:13.730Z,59.30
2019-02-06T08:48:39.180Z,61.88
2019-02-06T08:53:03.583Z,56.40
2019-02-06T08:57:28.018Z,54.95
2019-02-06T09:01:52.713Z,56.37
2019-02-06T09:06:17.848Z,54.70
2019-02-06T09:10:42.634Z,53.52
2019-02-06T09:15:08.384Z,50.78
2019-02-06T09:19:33.093Z,44.20
2019-02-06T09:23:57.822Z,43.38
2019-02-06T09:28:22.149Z,44.85
2019-02-06T09:32:46.992Z,44.58
2019-02-06T09:37:11.216Z,41.60
2019-02-06T09:41:35.789Z,40.80
2019-02-06T09:46:00.293Z,42.98
2019-02-06T09:50:30.512Z,45.38
2019-02-06T09:54:56.249Z,37.93
2019-02-06T09:59:20.851Z,41.08
2019-02-06T10:03:47.038Z,35.58
2019-02-06T10:08:11.690Z,35.45
2019-02-06T10:12:36.690Z,62.95
2019-02-06T10:17:10.044Z,39.42
2019-02-06T10:21:35.017Z,37.30
2019-02-06T10:25:59.823Z,36.40
2019-02-06T10:30:36.417Z,32.75
2019-02-06T10:35:01.112Z,34.27
2019-02-06T10:39:34.302Z,32.38
2019-02-06T10:43:52.158Z,29.55
2019-02-06T10:48:17.170Z,31.33
2019-02-06T10:52:41.984Z,30.70
2019-02-06T10:57:06.679Z,30.25
2019-02-06T11:01:33.021Z,27.98
2019-02-06T11:05:57.956Z,27.90
2019-02-06T11:10:25.397Z,27.13
2019-02-06T11:14:50.104Z,24.35
2019-02-06T11:19:14.806Z,29.35
2019-02-06T11:23:39.612Z,24.35
2019-02-06T11:28:04.317Z,28.20
2019-02-06T11:32:29.635Z,24.82
2019-02-06T11:36:54.441Z,24.18
2019-02-06T11:41:20.277Z,23.67
2019-02-06T11:45:45.078Z,24.23
2019-02-06T11:50:12.548Z,25.77
2019-02-06T11:54:37.967Z,23.30
2019-02-06T11:59:02.673Z,25.20
2019-02-06T12:03:27.784Z,22.48
2019-02-06T12:07:52.489Z,25.02
2019-02-06T12:12:16.988Z,23.85
2019-02-06T12:16:41.491Z,21.33
2019-02-06T12:21:06.365Z,22.02
2019-02-06T12:25:34.271Z,22.87
2019-02-06T12:29:58.795Z,24.70
2019-02-06T12:34:24.911Z,21.93
2019-02-06T12:38:53.430Z,21.95
2019-02-06T12:43:16.982Z,21.25
2019-02-06T12:47:41.893Z,23.35
2019-02-06T12:52:07.112Z,23.65
2019-02-06T12:56:31.918Z,21.35
2019-02-06T13:00:56.617Z,22.55
2019-02-06T13:05:21.731Z,22.27
2019-02-06T13:09:46.644Z,20.75
2019-02-06T13:14:12.004Z,22.40
2019-02-06T13:18:37.098Z,22.93
2019-02-06T13:23:02.081Z,23.30
2019-02-06T13:27:26.713Z,21.17
2019-02-06T13:31:51.389Z,20.43
2019-02-06T13:36:15.887Z,27.75
2019-02-06T13:40:45.872Z,19.42
2019-02-06T13:45:12.721Z,18.77
2019-02-06T13:49:37.765Z,16.97
2019-02-06T13:54:02.813Z,17.35
2019-02-06T13:58:27.292Z,17.07
2019-02-06T14:02:53.428Z,18.57
2019-02-06T14:07:19.876Z,16.20
2019-02-06T14:11:44.474Z,19.73
2019-02-06T14:16:11.636Z,17.60
2019-02-06T14:20:36.470Z,18.15
2019-02-06T14:25:02.073Z,18.57
2019-02-06T14:29:59.547Z,19.87
2019-02-06T14:34:36.740Z,18.40
2019-02-06T14:39:13.833Z,16.02
2019-02-06T14:43:51.338Z,18.62
2019-02-06T14:48:20.866Z,18.95
2019-02-06T14:53:14.330Z,16.70
2019-02-06T14:57:50.811Z,17.05
2019-02-06T15:02:31.351Z,18.98
2019-02-06T15:07:17.744Z,16.10
2019-02-06T15:11:48.750Z,18.95
2019-02-06T15:16:31.604Z,20.15
2019-02-06T15:21:11.645Z,22.17
2019-02-06T15:25:53.759Z,19.65
2019-02-06T15:30:27.480Z,19.85
2019-02-06T15:35:03.644Z,16.62
2019-02-06T15:39:44.014Z,19.30
2019-02-06T15:44:14.965Z,21.20
2019-02-06T15:48:59.569Z,17.90
2019-02-06T15:53:28.027Z,19.82
2019-02-06T15:58:06.355Z,18.93
2019-02-06T16:02:40.204Z,21.60
2019-02-06T16:07:08.509Z,22.15
2019-02-06T16:11:49.034Z,22.55
2019-02-06T16:21:03.430Z,20.55
2019-02-06T16:25:34.484Z,25.12
2019-02-06T16:30:20.686Z,21.50
2019-02-06T16:35:06.212Z,22.60
2019-02-06T16:39:58.946Z,21.15
2019-02-06T16:44:51.090Z,18.82
2019-02-06T16:49:24.539Z,17.80
2019-02-06T16:53:55.752Z,20.85
2019-02-06T16:58:27.526Z,22.07
2019-02-06T17:03:12.349Z,21.27
2019-02-06T17:07:56.839Z,23.92
2019-02-06T17:12:38.158Z,25.02
2019-02-06T17:17:08.978Z,24.65
2019-02-06T17:21:56.853Z,22.98
2019-02-06T17:26:40.192Z,26.20
2019-02-06T17:31:23.970Z,23.15
2019-02-06T17:36:01.700Z,24.65
2019-02-06T17:40:41.307Z,26.70
2019-02-06T17:45:12.566Z,25.53
2019-02-06T17:50:06.694Z,24.25
2019-02-06T17:54:46.566Z,27.42
2019-02-06T17:59:11.015Z,27.03
2019-02-06T18:03:40.020Z,29.63
2019-02-06T18:08:07.643Z,30.72
2019-02-06T18:12:32.502Z,30.55
2019-02-06T18:16:58.845Z,28.83
2019-02-06T18:21:23.385Z,28.42
2019-02-06T18:25:51.968Z,28.83
2019-02-06T18:30:21.694Z,30.30
2019-02-06T18:34:46.800Z,31.73
2019-02-06T18:39:11.725Z,29.85
2019-02-06T18:43:40.722Z,31.05
2019-02-06T18:48:08.506Z,31.45
2019-02-06T18:52:36.892Z,31.45
2019-02-06T19:01:28.439Z,28.50
2019-02-06T19:05:53.221Z,27.95
2019-02-06T19:10:22.524Z,37.50
2019-02-06T19:14:48.053Z,28.38
2019-02-06T19:19:24.810Z,30.80
2019-02-06T19:23:42.934Z,29.85
2019-02-06T19:28:20.286Z,32.63
2019-02-06T19:32:46.734Z,30.48
2019-02-06T19:37:14.144Z,30.77
2019-02-06T19:41:40.314Z,31.02
2019-02-06T19:46:06.994Z,31.57
2019-02-06T19:50:40.298Z,34.45
2019-02-06T19:55:07.468Z,36.25
2019-02-06T19:59:32.881Z,32.67
2019-02-06T20:04:00.150Z,30.00
2019-02-06T20:08:25.261Z,32.50
2019-02-06T20:12:54.935Z,29.87
2019-02-06T20:17:23.378Z,33.38
2019-02-06T20:21:48.480Z,29.37
2019-02-06T20:26:18.255Z,32.78
2019-02-06T20:30:44.753Z,31.57
2019-02-06T20:35:16.418Z,30.35
2019-02-06T20:39:41.379Z,37.10
2019-02-06T20:44:06.137Z,32.67
2019-02-06T20:48:31.215Z,31.02
2019-02-06T20:52:57.590Z,31.95
2019-02-06T20:57:23.048Z,32.53
2019-02-06T21:01:47.919Z,35.78
2019-02-06T21:06:13.398Z,28.65
2019-02-06T21:10:38.655Z,33.00
2019-02-06T21:15:05.000Z,35.33
2019-02-06T21:19:30.217Z,31.12
2019-02-06T21:23:56.768Z,31.55
2019-02-06T21:28:21.978Z,30.52
2019-02-06T21:32:46.810Z,31.57
2019-02-06T21:37:11.911Z,31.42
2019-02-06T21:41:37.085Z,32.13
2019-02-06T21:46:02.745Z,27.20
2019-02-06T21:50:27.553Z,29.55
2019-02-06T21:54:52.352Z,37.05
2019-02-06T21:59:17.260Z,30.95
2019-02-06T22:03:42.374Z,31.93
2019-02-06T22:08:06.917Z,29.30
2019-02-06T22:12:31.785Z,31.82
2019-02-06T22:16:56.728Z,30.17
2019-02-06T22:21:21.600Z,32.75
2019-02-06T22:25:46.716Z,28.00
2019-02-06T22:30:29.046Z,33.25
2019-02-06T22:34:53.939Z,34.30
2019-02-06T22:39:18.952Z,33.35
2019-02-06T22:43:43.551Z,33.98
2019-02-06T22:48:09.076Z,36.03
2019-02-06T22:52:34.188Z,35.38
2019-02-06T22:56:59.814Z,32.35
2019-02-06T23:01:28.044Z,34.60
2019-02-06T23:05:54.814Z,32.33
2019-02-06T23:10:19.360Z,27.93
2019-02-06T23:14:45.285Z,35.33
2019-02-06T23:19:10.091Z,32.95
2019-02-06T23:23:34.898Z,34.30
2019-02-06T23:27:59.091Z,32.42
2019-02-06T23:32:24.206Z,32.75
2019-02-06T23:36:48.869Z,30.60
2019-02-06T23:41:13.614Z,35.55
2019-02-06T23:45:38.348Z,30.15
2019-02-06T23:50:02.882Z,32.48
2019-02-06T23:54:27.215Z,30.35
2019-02-06T23:58:52.048Z,34.67
